Time;durP1;ratioP1;P1;durP2;ratioP2;P2;SDS_P1;SDS_P2;PMS_P1;PMS_P2;Temp;Humidity;BMP_temperature;BMP_pressure;BME280_temperature;BME280_humidity;BME280_pressure;Samples;Min_cycle;Max_cycle;Signal;HPM_P1;HPM_P2
2021/06/07 04:11:19;;;;;;;0.20;0.20;;;20.20;99.90;;;;;;5548317;23;20287;-75
2021/06/07 04:13:46;;;;;;;0.20;0.20;;;20.20;99.90;;;;;;4957176;29;20574;-75
2021/06/07 04:16:13;;;;;;;0.20;0.20;;;20.30;99.90;;;;;;4956876;29;20256;-74
2021/06/07 04:18:41;;;;;;;0.20;0.20;;;20.30;99.90;;;;;;4957124;29;20239;-73
2021/06/07 04:21:08;;;;;;;0.20;0.20;;;20.30;99.90;;;;;;4957225;29;20589;-74
2021/06/07 04:23:36;;;;;;;0.20;0.20;;;20.40;99.90;;;;;;4976677;23;20248;-74
2021/06/07 04:26:04;;;;;;;0.20;0.20;;;20.20;99.90;;;;;;4954710;29;20276;-76
2021/06/07 04:28:33;;;;;;;0.28;0.28;;;20.30;99.90;;;;;;4955491;29;20205;-76
2021/06/07 04:31:01;;;;;;;0.20;0.20;;;20.40;99.90;;;;;;4957162;29;20206;-76
2021/06/07 04:33:28;;;;;;;0.30;0.30;;;20.50;99.90;;;;;;4956594;29;20284;-75
2021/06/07 04:35:56;;;;;;;0.20;0.20;;;20.40;99.90;;;;;;4953960;28;20292;-76
2021/06/07 04:38:23;;;;;;;0.20;0.20;;;20.40;99.90;;;;;;4963306;28;20241;-76
2021/06/07 04:40:50;;;;;;;0.20;0.20;;;20.50;99.90;;;;;;4956555;29;20249;-76
2021/06/07 04:43:18;;;;;;;0.20;0.20;;;20.50;99.90;;;;;;4956195;29;20280;-76
2021/06/07 04:45:46;;;;;;;0.20;0.20;;;20.50;99.90;;;;;;4955989;29;20233;-76
2021/06/07 04:48:15;;;;;;;0.30;0.30;;;20.50;99.90;;;;;;4956119;29;20682;-76
2021/06/07 04:50:44;;;;;;;0.30;0.30;;;20.50;99.90;;;;;;4956167;29;20721;-76
2021/06/07 04:53:12;;;;;;;0.20;0.20;;;20.60;99.90;;;;;;4956088;29;20221;-76
2021/06/07 04:55:41;;;;;;;0.30;0.30;;;20.80;99.90;;;;;;4955875;29;20225;-76
2021/06/07 04:58:11;;;;;;;0.20;0.20;;;20.80;99.90;;;;;;4955994;29;20253;-76
2021/06/07 05:00:41;;;;;;;0.20;0.20;;;20.70;99.90;;;;;;4956270;29;20201;-76
2021/06/07 05:03:09;;;;;;;0.20;0.20;;;20.70;99.90;;;;;;4956171;29;20604;-76
2021/06/07 05:05:37;;;;;;;0.20;0.20;;;20.60;99.90;;;;;;4954369;28;20252;-76
2021/06/07 05:08:05;;;;;;;0.20;0.20;;;20.70;99.90;;;;;;4942585;29;20660;-76
2021/06/07 05:10:33;;;;;;;0.20;0.20;;;20.60;99.90;;;;;;4955564;28;20748;-75
2021/06/07 05:13:01;;;;;;;0.30;0.30;;;20.50;99.90;;;;;;4956087;29;20267;-74
2021/06/07 05:15:29;;;;;;;0.30;0.30;;;20.40;99.90;;;;;;4953864;29;20233;-75
2021/06/07 05:17:56;;;;;;;0.30;0.30;;;20.50;99.90;;;;;;4954702;29;20581;-75
2021/06/07 05:20:27;;;;;;;0.20;0.20;;;20.50;99.90;;;;;;4955943;29;20205;-74
2021/06/07 05:22:56;;;;;;;0.35;0.35;;;20.60;99.90;;;;;;4955666;29;20625;-76
2021/06/07 05:25:27;;;;;;;0.30;0.30;;;20.40;99.90;;;;;;4954836;29;20212;-76
2021/06/07 05:27:55;;;;;;;0.20;0.20;;;20.50;99.90;;;;;;4955837;29;20237;-76
2021/06/07 05:30:24;;;;;;;0.20;0.20;;;20.60;99.90;;;;;;4955667;29;20247;-76
2021/06/07 05:32:52;;;;;;;0.20;0.20;;;21.00;99.90;;;;;;4955753;29;20205;-76
2021/06/07 05:35:21;;;;;;;0.30;0.30;;;20.90;99.90;;;;;;4955444;29;20221;-76
2021/06/07 05:37:50;;;;;;;0.30;0.30;;;21.00;99.90;;;;;;4955417;29;20718;-76
2021/06/07 05:40:20;;;;;;;0.20;0.20;;;21.20;99.90;;;;;;4955549;29;20244;-75
2021/06/07 05:42:47;;;;;;;0.20;0.20;;;21.20;99.90;;;;;;4955585;29;20228;-75
2021/06/07 05:45:16;;;;;;;0.20;0.20;;;21.20;99.90;;;;;;4955358;29;20231;-75
2021/06/07 05:47:43;;;;;;;0.20;0.20;;;;;;;;;;4955433;29;20213;-76
2021/06/07 05:50:14;;;;;;;0.20;0.20;;;21.30;99.90;;;;;;4955293;29;20579;-76
2021/06/07 05:52:46;;;;;;;0.30;0.30;;;21.40;99.90;;;;;;4955364;29;20201;-76
2021/06/07 05:55:18;;;;;;;0.20;0.20;;;21.30;99.90;;;;;;4955218;29;20225;-76
2021/06/07 05:57:46;;;;;;;0.20;0.20;;;21.50;99.90;;;;;;4955433;29;20205;-76
2021/06/07 06:00:17;;;;;;;0.30;0.30;;;21.60;99.90;;;;;;4955243;29;20243;-77
2021/06/07 06:02:44;;;;;;;0.20;0.20;;;21.60;99.90;;;;;;4954918;29;20201;-76
2021/06/07 06:05:13;;;;;;;0.20;0.20;;;21.60;99.90;;;;;;4955123;29;20197;-76
2021/06/07 06:07:40;;;;;;;0.30;0.30;;;21.60;99.90;;;;;;4954928;29;20213;-77
2021/06/07 06:10:08;;;;;;;0.30;0.30;;;21.50;99.90;;;;;;4955159;29;20209;-76
2021/06/07 06:12:37;;;;;;;0.20;0.20;;;21.40;99.90;;;;;;4954995;29;20205;-74
2021/06/07 06:15:06;;;;;;;0.20;0.20;;;21.40;99.90;;;;;;4954985;29;20225;-75
2021/06/07 06:17:34;;;;;;;0.20;0.20;;;21.20;99.90;;;;;;4955080;29;20205;-75
2021/06/07 06:20:01;;;;;;;0.20;0.20;;;21.40;99.90;;;;;;4955042;29;20220;-76
2021/06/07 06:22:28;;;;;;;0.20;0.20;;;22.20;99.90;;;;;;4954207;28;20252;-75
2021/06/07 06:24:56;;;;;;;0.20;0.20;;;21.50;99.90;;;;;;4954580;29;20233;-76
2021/06/07 06:27:23;;;;;;;0.20;0.20;;;21.50;99.90;;;;;;4954464;29;20233;-76
2021/06/07 06:29:52;;;;;;;0.20;0.20;;;21.50;99.90;;;;;;4954571;29;20210;-76
2021/06/07 06:32:20;;;;;;;0.20;0.20;;;21.60;99.90;;;;;;4954782;29;20627;-75
2021/06/07 06:34:48;;;;;;;0.25;0.25;;;21.50;99.90;;;;;;4954466;29;20678;-75
2021/06/07 06:37:15;;;;;;;0.20;0.20;;;21.70;99.90;;;;;;4954298;29;20206;-76
2021/06/07 06:39:43;;;;;;;0.20;0.20;;;21.70;99.90;;;;;;4954588;29;20201;-75
2021/06/07 06:42:11;;;;;;;0.20;0.20;;;21.70;99.90;;;;;;4954386;29;20241;-75
2021/06/07 06:44:38;;;;;;;0.20;0.20;;;21.80;99.90;;;;;;4954663;29;20892;-75
2021/06/07 06:47:07;;;;;;;0.20;0.20;;;21.60;99.90;;;;;;4954311;29;20273;-75
2021/06/07 06:49:36;;;;;;;0.20;0.20;;;21.70;99.90;;;;;;4954434;29;20665;-75
2021/06/07 06:52:04;;;;;;;0.30;0.30;;;21.70;99.90;;;;;;4954320;29;20205;-76
2021/06/07 06:54:31;;;;;;;0.20;0.20;;;21.50;99.90;;;;;;4954352;29;20264;-75
2021/06/07 06:56:58;;;;;;;0.20;0.20;;;21.50;99.90;;;;;;4953905;29;20299;-76
2021/06/07 06:59:27;;;;;;;0.20;0.20;;;22.40;99.90;;;;;;4954426;29;20210;-77
2021/06/07 07:01:54;;;;;;;0.30;0.30;;;;;;;;;;4954019;29;20737;-76
2021/06/07 07:04:23;;;;;;;0.30;0.30;;;21.60;99.90;;;;;;4954111;29;20257;-77
2021/06/07 07:06:50;;;;;;;0.30;0.30;;;21.60;99.90;;;;;;4953813;29;20244;-77
2021/06/07 07:09:18;;;;;;;0.20;0.20;;;21.70;99.90;;;;;;4954098;29;20260;-77
2021/06/07 07:11:47;;;;;;;0.30;0.30;;;21.60;99.90;;;;;;4954138;29;20209;-77
2021/06/07 07:14:14;;;;;;;0.20;0.20;;;21.90;99.90;;;;;;4953733;29;20714;-76
2021/06/07 07:16:41;;;;;;;0.20;0.20;;;22.10;99.90;;;;;;4954112;29;20200;-77
2021/06/07 07:19:09;;;;;;;0.20;0.20;;;22.00;99.90;;;;;;4953923;29;20210;-77
2021/06/07 07:21:37;;;;;;;0.20;0.20;;;22.10;99.90;;;;;;4953994;29;20228;-77
2021/06/07 07:24:07;;;;;;;0.20;0.20;;;22.10;99.90;;;;;;4953598;29;20233;-77
2021/06/07 07:26:35;;;;;;;0.20;0.20;;;22.30;99.90;;;;;;4953626;29;20621;-77
2021/06/07 07:29:02;;;;;;;0.20;0.20;;;;;;;;;;4953769;29;20260;-77
2021/06/07 07:31:30;;;;;;;0.20;0.20;;;22.40;99.90;;;;;;4953995;29;20233;-77
2021/06/07 07:33:57;;;;;;;0.20;0.20;;;22.40;99.90;;;;;;4954214;28;20661;-76
2021/06/07 07:36:25;;;;;;;0.20;0.20;;;;;;;;;;4957448;29;20260;-77
2021/06/07 07:38:54;;;;;;;0.20;0.20;;;22.70;99.90;;;;;;4957639;29;20695;-78
2021/06/07 07:41:21;;;;;;;0.20;0.20;;;22.90;99.90;;;;;;4957883;29;20217;-77
2021/06/07 07:43:49;;;;;;;0.30;0.30;;;;;;;;;;4957468;29;20603;-77
2021/06/07 07:46:16;;;;;;;0.20;0.20;;;22.50;99.90;;;;;;4957730;29;20719;-77
2021/06/07 07:48:44;;;;;;;0.20;0.20;;;22.40;99.90;;;;;;4957421;29;20205;-77
2021/06/07 07:51:11;;;;;;;0.20;0.20;;;;;;;;;;4957793;29;20205;-77
2021/06/07 07:53:39;;;;;;;0.20;0.20;;;;;;;;;;4957545;29;20272;-77
2021/06/07 07:56:09;;;;;;;0.20;0.20;;;22.60;99.90;;;;;;4957093;29;20225;-77
2021/06/07 07:58:36;;;;;;;0.20;0.20;;;22.50;99.90;;;;;;4957603;29;20205;-77
2021/06/07 08:01:04;;;;;;;0.20;0.20;;;22.50;99.90;;;;;;4957318;29;20251;-77
2021/06/07 08:03:31;;;;;;;0.20;0.20;;;;;;;;;;4957097;29;20233;-77
2021/06/07 08:06:00;;;;;;;0.20;0.20;;;22.40;99.90;;;;;;4957046;29;20201;-77
2021/06/07 08:08:28;;;;;;;0.20;0.20;;;;;;;;;;4957306;29;20202;-77
2021/06/07 08:10:57;;;;;;;0.20;0.20;;;22.60;99.90;;;;;;4957320;29;20205;-77
2021/06/07 08:13:26;;;;;;;0.20;0.20;;;22.80;99.90;;;;;;4957119;29;20225;-77
2021/06/07 08:15:53;;;;;;;0.20;0.20;;;23.10;99.90;;;;;;4957111;29;20225;-77
2021/06/07 08:18:21;;;;;;;0.20;0.20;;;;;;;;;;4956898;29;20296;-77
2021/06/07 08:20:51;;;;;;;0.20;0.20;;;23.10;99.90;;;;;;4957171;29;20216;-77
2021/06/07 08:23:21;;;;;;;0.20;0.20;;;23.40;99.90;;;;;;4956724;29;20856;-76
2021/06/07 08:25:48;;;;;;;0.20;0.20;;;23.30;99.90;;;;;;4956797;29;20261;-76
2021/06/07 08:28:16;;;;;;;0.20;0.20;;;23.00;99.90;;;;;;4956879;29;20201;-76
2021/06/07 08:30:45;;;;;;;0.20;0.20;;;23.10;99.90;;;;;;4956732;29;20586;-76
2021/06/07 08:33:12;;;;;;;0.20;0.20;;;23.10;99.90;;;;;;4956619;29;20229;-76
2021/06/07 08:35:40;;;;;;;0.20;0.20;;;23.10;99.90;;;;;;4956620;29;20221;-77
2021/06/07 08:38:07;;;;;;;0.20;0.20;;;23.10;99.90;;;;;;4956641;29;20270;-75
2021/06/07 08:40:35;;;;;;;0.20;0.20;;;23.00;99.90;;;;;;4956573;29;20202;-76
2021/06/07 08:43:02;;;;;;;0.20;0.20;;;23.00;99.90;;;;;;4956611;29;20225;-76
2021/06/07 08:45:30;;;;;;;0.20;0.20;;;23.00;99.90;;;;;;4955672;28;20292;-76
2021/06/07 08:47:59;;;;;;;0.20;0.20;;;23.00;99.90;;;;;;4956676;29;20232;-76
2021/06/07 08:50:29;;;;;;;0.20;0.20;;;23.60;99.90;;;;;;4956465;29;20244;-77
2021/06/07 08:52:56;;;;;;;0.20;0.20;;;22.80;99.90;;;;;;4956300;29;20201;-76
2021/06/07 08:55:28;;;;;;;0.30;0.30;;;22.80;99.90;;;;;;4956047;29;20220;-77
2021/06/07 08:58:00;;;;;;;0.20;0.20;;;22.90;99.90;;;;;;4956330;29;20745;-76
2021/06/07 09:00:30;;;;;;;0.20;0.20;;;23.10;99.90;;;;;;4956449;29;20209;-77
2021/06/07 09:03:03;;;;;;;0.20;0.20;;;23.20;99.90;;;;;;4956277;29;20261;-77
2021/06/07 09:05:32;;;;;;;0.20;0.20;;;23.20;99.90;;;;;;4956125;29;20209;-76
2021/06/07 09:08:01;;;;;;;0.20;0.20;;;23.10;99.90;;;;;;4956184;29;20252;-76
2021/06/07 09:10:31;;;;;;;0.20;0.20;;;24.30;99.90;;;;;;4956300;29;20209;-76
2021/06/07 09:13:01;;;;;;;0.20;0.20;;;23.40;99.90;;;;;;4956168;29;20257;-76
2021/06/07 09:15:32;;;;;;;0.20;0.20;;;23.30;99.90;;;;;;4955710;29;20309;-76
2021/06/07 09:18:03;;;;;;;0.20;0.20;;;23.30;99.90;;;;;;4955997;29;20213;-78
2021/06/07 09:20:32;;;;;;;0.20;0.20;;;23.20;99.90;;;;;;4955886;29;20245;-76
2021/06/07 09:23:02;;;;;;;0.28;0.28;;;23.30;99.90;;;;;;4955619;29;20248;-76
2021/06/07 09:25:32;;;;;;;0.30;0.30;;;23.40;99.90;;;;;;4955519;29;20297;-76
2021/06/07 09:28:12;;;;;;;0.20;0.20;;;23.40;99.90;;;;;;4955940;29;20284;-77
2021/06/07 09:30:45;;;;;;;0.20;0.20;;;23.10;99.90;;;;;;4955788;29;20205;-76
2021/06/07 09:33:37;;;;;;;0.20;0.20;;;23.20;99.90;;;;;;4955569;29;20268;-76
2021/06/07 09:36:18;;;;;;;0.20;0.20;;;23.00;99.90;;;;;;4955438;29;20225;-76
2021/06/07 09:39:13;;;;;;;0.30;0.30;;;22.90;99.90;;;;;;4955848;29;20601;-77
2021/06/07 09:41:56;;;;;;;0.20;0.20;;;23.00;99.90;;;;;;4955580;29;20655;-75
2021/06/07 09:44:31;;;;;;;0.20;0.20;;;23.20;99.90;;;;;;4955288;29;20285;-76
2021/06/07 09:47:13;;;;;;;0.20;0.20;;;23.20;99.90;;;;;;4955323;29;20252;-76
2021/06/07 09:49:44;;;;;;;0.20;0.20;;;23.30;99.90;;;;;;4955229;29;20204;-76
2021/06/07 09:52:16;;;;;;;0.20;0.20;;;23.30;99.90;;;;;;4955318;29;20213;-76
2021/06/07 09:54:44;;;;;;;0.20;0.20;;;23.40;99.90;;;;;;4955269;29;20312;-76
2021/06/07 09:57:13;;;;;;;0.20;0.20;;;23.60;99.90;;;;;;4954075;28;20232;-77
2021/06/07 09:59:44;;;;;;;0.20;0.20;;;23.80;99.90;;;;;;4955120;29;20678;-77
2021/06/07 10:02:17;;;;;;;0.20;0.20;;;24.70;99.90;;;;;;4955189;29;20194;-77
2021/06/07 10:04:54;;;;;;;0.20;0.20;;;23.90;99.90;;;;;;4954944;29;20312;-76
2021/06/07 10:07:23;;;;;;;0.20;0.20;;;23.90;99.90;;;;;;4955053;29;20618;-77
2021/06/07 10:10:18;;;;;;;0.20;0.20;;;24.10;99.90;;;;;;4955070;29;20205;-77
2021/06/07 10:12:46;;;;;;;0.20;0.20;;;23.90;99.90;;;;;;4954858;29;20229;-76
2021/06/07 10:15:31;;;;;;;0.20;0.20;;;23.90;99.90;;;;;;4954521;29;20213;-77
2021/06/07 10:17:59;;;;;;;0.20;0.20;;;23.90;99.90;;;;;;4954963;29;20568;-77
2021/06/07 10:20:49;;;;;;;0.20;0.20;;;23.90;99.90;;;;;;4954912;29;20292;-77
2021/06/07 10:23:18;;;;;;;0.20;0.20;;;24.00;99.90;;;;;;4954910;29;20739;-76
2021/06/07 10:25:47;;;;;;;0.20;0.20;;;24.10;99.90;;;;;;4954609;29;20202;-77
2021/06/07 10:28:15;;;;;;;0.20;0.20;;;24.00;99.90;;;;;;4954711;29;20244;-77
2021/06/07 10:30:44;;;;;;;0.20;0.20;;;24.00;99.90;;;;;;4954667;29;20213;-77
2021/06/07 10:33:33;;;;;;;0.10;0.10;;;24.10;99.90;;;;;;4954644;29;20221;-77
2021/06/07 10:36:41;;;;;;;0.20;0.20;;;24.10;99.90;;;;;;4950311;29;20229;-77
2021/06/07 10:39:25;;;;;;;0.20;0.20;;;24.20;99.90;;;;;;4954476;29;20252;-77
2021/06/07 10:42:27;;;;;;;0.13;0.13;;;24.10;99.90;;;;;;4954495;29;20204;-76
2021/06/07 10:45:01;;;;;;;0.20;0.20;;;24.20;99.90;;;;;;4954627;29;20283;-76
2021/06/07 10:47:40;;;;;;;0.20;0.20;;;24.40;99.90;;;;;;4954421;29;20201;-77
2021/06/07 10:50:09;;;;;;;0.10;0.10;;;24.40;99.90;;;;;;4954297;29;20259;-77
2021/06/07 10:52:49;;;;;;;0.20;0.20;;;24.10;99.90;;;;;;4954491;29;20626;-76
2021/06/07 10:55:21;;;;;;;0.20;0.20;;;24.20;99.90;;;;;;4954321;29;20197;-76
2021/06/07 10:57:50;;;;;;;0.10;0.10;;;24.10;99.90;;;;;;4954232;29;20252;-76
2021/06/07 11:00:24;;;;;;;0.20;0.20;;;24.20;99.90;;;;;;4954194;29;20265;-77
2021/06/07 11:02:54;;;;;;;0.10;0.10;;;24.70;99.90;;;;;;4954027;29;20659;-78
2021/06/07 11:05:24;;;;;;;0.20;0.20;;;24.50;99.90;;;;;;4954089;29;20202;-77
2021/06/07 11:08:03;;;;;;;0.10;0.10;;;24.40;98.60;;;;;;4953845;28;20577;-77
2021/06/07 11:10:32;;;;;;;0.20;0.20;;;24.60;99.30;;;;;;4954127;29;20205;-77
2021/06/07 11:13:02;;;;;;;0.10;0.10;;;24.70;99.70;;;;;;4954012;29;20280;-76
2021/06/07 11:15:31;;;;;;;0.13;0.13;;;24.70;98.70;;;;;;4953714;29;20256;-76
2021/06/07 11:18:27;;;;;;;0.10;0.10;;;24.60;98.40;;;;;;4954356;29;20202;-76
2021/06/07 11:21:01;;;;;;;0.20;0.20;;;24.60;98.60;;;;;;4920579;29;20256;-76
2021/06/07 11:23:36;;;;;;;0.10;0.10;;;24.50;99.70;;;;;;4953846;29;20279;-77
2021/06/07 11:26:05;;;;;;;0.20;0.20;;;24.60;98.10;;;;;;4953891;29;20620;-77
2021/06/07 11:28:39;;;;;;;0.17;0.17;;;24.70;98.40;;;;;;4954223;29;20263;-77
2021/06/07 11:31:37;;;;;;;0.20;0.20;;;24.80;97.60;;;;;;4954141;29;20337;-77
2021/06/07 11:34:06;;;;;;;0.10;0.10;;;24.90;97.90;;;;;;4954163;29;20225;-77
2021/06/07 11:36:43;;;;;;;0.10;0.10;;;24.70;97.70;;;;;;4953760;29;20233;-78
2021/06/07 11:39:31;;;;;;;0.20;0.20;;;24.80;98.10;;;;;;4953907;29;20252;-77
2021/06/07 11:42:04;;;;;;;0.20;0.20;;;24.80;97.90;;;;;;4953966;29;20209;-77
2021/06/07 11:45:06;;;;;;;0.20;0.20;;;24.90;98.80;;;;;;4953826;29;20221;-77
2021/06/07 11:47:56;;;;;;;0.20;0.20;;;24.90;98.40;;;;;;4949623;29;20228;-78
2021/06/07 11:50:33;;;;;;;0.10;0.10;;;25.00;98.10;;;;;;4949693;29;20217;-75
2021/06/07 11:53:14;;;;;;;0.20;0.20;;;25.10;96.60;;;;;;4953976;29;20229;-77
2021/06/07 11:55:44;;;;;;;0.10;0.10;;;25.30;97.30;;;;;;4953615;29;20684;-76
2021/06/07 11:58:20;;;;;;;0.10;0.10;;;25.40;96.30;;;;;;4953715;29;20233;-77
2021/06/07 12:00:50;;;;;;;0.10;0.10;;;25.60;96.00;;;;;;4953970;29;20186;-77
2021/06/07 12:03:19;;;;;;;0.10;0.10;;;25.80;96.60;;;;;;4953515;29;20225;-77
2021/06/07 12:05:49;;;;;;;0.10;0.10;;;;;;;;;;4953323;29;20766;-77
2021/06/07 12:08:18;;;;;;;0.10;0.10;;;26.10;93.90;;;;;;4953646;29;20677;-77
2021/06/07 12:10:52;;;;;;;0.10;0.10;;;26.10;93.90;;;;;;4953537;29;20209;-77
2021/06/07 12:13:26;;;;;;;0.10;0.10;;;26.20;93.50;;;;;;4953602;29;20224;-77
2021/06/07 12:15:57;;;;;;;0.20;0.20;;;;;;;;;;4953249;29;20200;-77
2021/06/07 12:18:33;;;;;;;0.10;0.10;;;26.70;99.90;;;;;;4953653;29;20214;-77
2021/06/07 12:21:03;;;;;;;0.10;0.10;;;26.90;91.80;;;;;;4955462;28;20212;-76
2021/06/07 12:23:33;;;;;;;0.10;0.10;;;27.20;92.00;;;;;;4956895;29;20308;-76
2021/06/07 12:29:35;;;;;;;0.10;0.10;;;27.40;90.30;;;;;;4956893;29;20728;-76
2021/06/07 12:32:21;;;;;;;0.10;0.10;;;27.60;90.10;;;;;;4897516;29;20219;-76
2021/06/07 12:35:04;;;;;;;0.20;0.20;;;27.70;90.20;;;;;;4950942;29;20299;-76
2021/06/07 12:37:34;;;;;;;0.10;0.10;;;27.80;89.10;;;;;;4956461;29;20225;-77
2021/06/07 12:40:32;;;;;;;0.10;0.10;;;28.30;88.30;;;;;;4956809;29;20268;-76
2021/06/07 12:43:13;;;;;;;0.10;0.10;;;28.60;85.60;;;;;;4949757;29;20218;-76
2021/06/07 12:45:42;;;;;;;0.10;0.10;;;28.80;83.50;;;;;;4951125;29;20236;-77
2021/06/07 12:48:16;;;;;;;0.10;0.10;;;28.80;84.00;;;;;;4957001;29;20207;-76
2021/06/07 12:50:47;;;;;;;0.10;0.10;;;28.90;82.70;;;;;;4956129;29;20248;-77
2021/06/07 12:53:15;;;;;;;0.10;0.10;;;28.90;83.20;;;;;;4955857;29;20261;-76
2021/06/07 12:55:45;;;;;;;0.10;0.10;;;29.10;81.40;;;;;;4955596;29;20235;-77
2021/06/07 12:58:17;;;;;;;0.10;0.10;;;29.90;79.60;;;;;;4956497;29;20300;-76
2021/06/07 13:00:48;;;;;;;0.10;0.10;;;30.00;80.70;;;;;;4957098;29;20249;-77
2021/06/07 13:03:24;;;;;;;0.10;0.10;;;30.50;76.90;;;;;;4949295;29;20218;-77
2021/06/07 13:06:09;;;;;;;0.10;0.10;;;31.10;72.70;;;;;;4950142;29;20622;-76
2021/06/07 13:08:49;;;;;;;0.10;0.10;;;31.50;72.20;;;;;;4948151;29;20198;-77
2021/06/07 13:11:18;;;;;;;0.10;0.10;;;32.30;68.20;;;;;;4951047;29;20259;-76
2021/06/07 13:13:48;;;;;;;0.10;0.10;;;32.50;66.20;;;;;;4950278;29;20687;-77
2021/06/07 13:16:29;;;;;;;0.10;0.10;;;33.10;63.90;;;;;;4950247;29;20196;-77
2021/06/07 13:19:02;;;;;;;0.10;0.10;;;33.50;62.60;;;;;;4957429;29;20215;-78
2021/06/07 13:21:46;;;;;;;0.10;0.10;;;34.20;61.20;;;;;;4945214;29;20670;-78
2021/06/07 13:24:17;;;;;;;0.10;0.10;;;34.10;58.80;;;;;;4945748;29;20232;-76
2021/06/07 13:26:48;;;;;;;0.10;0.10;;;34.50;57.60;;;;;;4937781;29;20305;-77
2021/06/07 13:29:23;;;;;;;0.00;0.00;;;34.80;57.40;;;;;;4936526;29;20205;-76
2021/06/07 13:32:08;;;;;;;0.00;0.00;;;34.80;55.90;;;;;;4935191;29;20240;-76
2021/06/07 13:34:43;;;;;;;0.00;0.00;;;35.00;56.20;;;;;;4936402;29;20718;-76
2021/06/07 13:37:16;;;;;;;0.00;0.00;;;35.00;54.40;;;;;;4936188;29;20698;-76
2021/06/07 13:39:45;;;;;;;0.00;0.00;;;34.10;55.90;;;;;;4936693;29;20590;-76
2021/06/07 13:42:13;;;;;;;0.00;0.00;;;34.80;56.20;;;;;;4936538;29;20202;-76
2021/06/07 13:44:53;;;;;;;0.00;0.00;;;34.20;55.30;;;;;;4936588;29;20279;-76
2021/06/07 13:47:24;;;;;;;0.00;0.00;;;33.20;57.80;;;;;;4936662;29;20570;-78
2021/06/07 13:50:00;;;;;;;0.00;0.00;;;32.70;58.20;;;;;;4955761;29;20553;-75
2021/06/07 13:52:36;;;;;;;0.10;0.10;;;32.10;60.70;;;;;;4950987;29;20189;-79
2021/06/07 13:55:11;;;;;;;0.10;0.10;;;31.10;62.40;;;;;;4949334;29;20256;-75
2021/06/07 13:57:56;;;;;;;0.10;0.10;;;30.20;62.60;;;;;;4955144;29;20271;-74
2021/06/07 14:00:26;;;;;;;0.10;0.10;;;29.80;63.70;;;;;;4955343;29;20817;-75
2021/06/07 14:02:53;;;;;;;0.10;0.10;;;28.70;79.70;;;;;;4955166;29;20209;-75
2021/06/07 14:05:22;;;;;;;0.10;0.10;;;28.60;67.30;;;;;;4955043;29;20213;-73
2021/06/07 14:07:49;;;;;;;0.10;0.10;;;28.80;67.90;;;;;;4955289;29;20276;-76
2021/06/07 14:10:18;;;;;;;0.10;0.10;;;28.60;67.80;;;;;;4955111;29;20205;-75
2021/06/07 14:12:45;;;;;;;0.10;0.10;;;28.50;84.00;;;;;;4954894;29;20209;-74
2021/06/07 14:15:14;;;;;;;0.10;0.10;;;28.40;65.30;;;;;;4954960;29;20277;-75
2021/06/07 14:17:43;;;;;;;0.10;0.10;;;28.30;63.30;;;;;;4959887;29;20245;-78
2021/06/07 14:20:12;;;;;;;0.10;0.10;;;28.20;64.50;;;;;;4957058;29;20769;-78
2021/06/07 14:25:25;;;;;;;0.10;0.10;;;28.20;62.00;;;;;;4951673;29;20588;-75
2021/06/07 14:27:52;;;;;;;0.10;0.10;;;28.50;67.20;;;;;;4952918;29;20213;-77
2021/06/07 14:30:20;;;;;;;0.10;0.10;;;28.70;60.30;;;;;;4945433;29;20195;-77
2021/06/07 14:32:48;;;;;;;0.10;0.10;;;28.70;60.10;;;;;;4926825;29;20197;-76
2021/06/07 14:35:16;;;;;;;0.10;0.10;;;28.50;60.70;;;;;;4946087;29;20194;-75
2021/06/07 14:37:43;;;;;;;0.10;0.10;;;28.40;61.10;;;;;;4943033;29;20217;-75
2021/06/07 14:40:11;;;;;;;0.10;0.10;;;28.30;60.00;;;;;;4950849;29;20257;-76
2021/06/07 14:42:38;;;;;;;0.10;0.10;;;28.40;62.80;;;;;;4947205;28;20197;-78
2021/06/07 14:45:07;;;;;;;0.10;0.10;;;28.10;62.90;;;;;;4948770;29;20615;-77
2021/06/07 14:47:34;;;;;;;0.10;0.10;;;28.00;61.60;;;;;;4947458;29;20218;-76
2021/06/07 14:50:04;;;;;;;0.10;0.10;;;28.00;60.00;;;;;;4940840;28;20202;-76
2021/06/07 14:52:31;;;;;;;0.10;0.10;;;28.10;61.70;;;;;;4947630;28;20237;-76
2021/06/07 14:54:59;;;;;;;0.10;0.10;;;28.10;59.80;;;;;;4945155;28;20272;-77
2021/06/07 14:57:27;;;;;;;0.10;0.10;;;28.30;64.50;;;;;;4943633;29;20728;-78
2021/06/07 14:59:54;;;;;;;0.10;0.10;;;28.30;58.70;;;;;;4946353;29;20197;-78
2021/06/07 15:02:21;;;;;;;0.10;0.10;;;28.10;58.60;;;;;;4948212;29;20201;-79
2021/06/07 15:04:49;;;;;;;0.10;0.10;;;27.80;58.00;;;;;;4945048;29;20277;-75
2021/06/07 15:07:17;;;;;;;0.10;0.10;;;27.80;59.40;;;;;;4941326;29;20241;-78
2021/06/07 15:09:45;;;;;;;0.10;0.10;;;27.80;60.00;;;;;;4938423;29;20214;-75
2021/06/07 15:12:12;;;;;;;0.10;0.10;;;27.80;60.60;;;;;;4949464;29;20224;-74
2021/06/07 15:14:40;;;;;;;0.10;0.10;;;27.80;59.80;;;;;;4934868;29;20222;-76
2021/06/07 15:17:07;;;;;;;0.10;0.10;;;27.60;59.50;;;;;;4934175;29;20210;-74
2021/06/07 15:19:34;;;;;;;0.10;0.10;;;27.70;60.10;;;;;;4937568;29;20253;-75
2021/06/07 15:22:02;;;;;;;0.10;0.10;;;27.70;58.40;;;;;;4934845;29;20261;-77
2021/06/07 15:24:31;;;;;;;0.10;0.10;;;27.30;58.40;;;;;;4934513;29;20230;-77
2021/06/07 15:26:58;;;;;;;0.10;0.10;;;27.50;59.40;;;;;;4933298;29;20269;-74
2021/06/07 15:29:26;;;;;;;0.10;0.10;;;27.50;60.30;;;;;;4943225;29;20276;-75
2021/06/07 15:31:53;;;;;;;0.10;0.10;;;27.60;60.00;;;;;;4953714;29;20213;-74
2021/06/07 15:34:21;;;;;;;0.10;0.10;;;27.70;58.90;;;;;;4953562;29;20225;-75
2021/06/07 15:36:48;;;;;;;0.10;0.10;;;27.80;58.50;;;;;;4953995;29;20256;-76
2021/06/07 15:39:16;;;;;;;0.10;0.10;;;27.70;57.50;;;;;;4949876;29;20284;-75
2021/06/07 15:41:45;;;;;;;0.10;0.10;;;27.60;59.90;;;;;;4943348;29;20198;-74
2021/06/07 15:44:12;;;;;;;0.10;0.10;;;27.40;59.30;;;;;;4943283;29;20221;-76
2021/06/07 15:46:40;;;;;;;0.10;0.10;;;27.10;59.00;;;;;;4944567;29;20202;-76
2021/06/07 15:49:07;;;;;;;0.10;0.10;;;27.00;59.30;;;;;;4941989;29;20202;-75
2021/06/07 15:51:35;;;;;;;0.10;0.10;;;26.90;59.60;;;;;;4937742;29;20206;-77
2021/06/07 15:54:02;;;;;;;0.10;0.10;;;27.10;61.30;;;;;;4938102;29;20217;-77
2021/06/07 15:56:30;;;;;;;0.10;0.10;;;27.30;60.60;;;;;;4947518;29;20197;-75
2021/06/07 15:59:00;;;;;;;0.10;0.10;;;27.30;59.10;;;;;;4954927;29;20261;-74
2021/06/07 16:01:28;;;;;;;0.10;0.10;;;27.30;58.20;;;;;;4956757;29;20288;-76
2021/06/07 16:03:57;;;;;;;0.10;0.10;;;27.30;58.40;;;;;;4945440;29;20233;-74
2021/06/07 16:06:25;;;;;;;0.10;0.10;;;27.30;57.90;;;;;;4939702;29;20218;-76
2021/06/07 16:08:53;;;;;;;0.10;0.10;;;27.40;61.10;;;;;;4951380;29;20202;-75
2021/06/07 16:11:20;;;;;;;0.10;0.10;;;27.70;61.60;;;;;;4948461;29;20227;-75
2021/06/07 16:13:48;;;;;;;0.10;0.10;;;27.70;59.70;;;;;;4938173;29;20264;-75
2021/06/07 16:16:22;;;;;;;0.10;0.10;;;27.60;59.90;;;;;;4939315;29;20206;-77
2021/06/07 16:18:51;;;;;;;0.10;0.10;;;27.60;61.80;;;;;;4938553;29;20253;-77
2021/06/07 16:21:19;;;;;;;0.10;0.10;;;27.60;61.70;;;;;;4938718;29;20206;-78
2021/06/07 16:23:49;;;;;;;0.10;0.10;;;27.40;60.90;;;;;;4938671;29;20237;-76
2021/06/07 16:26:18;;;;;;;0.10;0.10;;;27.40;62.30;;;;;;4949177;29;20197;-75
2021/06/07 16:28:46;;;;;;;0.10;0.10;;;27.50;59.90;;;;;;4956839;29;20211;-73
2021/06/07 16:31:16;;;;;;;0.10;0.10;;;27.40;59.40;;;;;;4957013;29;20263;-76
2021/06/07 16:33:45;;;;;;;0.10;0.10;;;27.30;58.70;;;;;;4956672;29;20236;-77
2021/06/07 16:36:13;;;;;;;0.10;0.10;;;27.30;59.40;;;;;;4956601;29;20718;-77
2021/06/07 16:38:41;;;;;;;0.10;0.10;;;27.50;59.80;;;;;;4958141;29;20277;-75
2021/06/07 16:41:08;;;;;;;0.10;0.10;;;27.40;59.70;;;;;;4948369;29;20618;-74
2021/06/07 16:43:36;;;;;;;0.10;0.10;;;27.60;61.10;;;;;;4938860;29;20297;-77
2021/06/07 16:46:03;;;;;;;0.10;0.10;;;27.80;60.70;;;;;;4946138;29;20205;-74
2021/06/07 16:48:31;;;;;;;0.10;0.10;;;28.10;59.70;;;;;;4950307;29;20229;-76
2021/06/07 16:51:01;;;;;;;0.10;0.10;;;27.90;59.90;;;;;;4956320;29;20205;-75
2021/06/07 16:53:28;;;;;;;0.10;0.10;;;27.80;59.80;;;;;;4946826;29;20229;-73
2021/06/07 16:55:56;;;;;;;0.10;0.10;;;27.70;60.30;;;;;;4952943;29;20197;-71
2021/06/07 16:58:23;;;;;;;0.10;0.10;;;27.90;60.70;;;;;;4948662;29;20256;-78
2021/06/07 17:00:51;;;;;;;0.10;0.10;;;27.90;61.30;;;;;;4936212;29;20618;-73
2021/06/07 17:03:18;;;;;;;0.10;0.10;;;28.20;61.00;;;;;;4935245;29;20797;-80
2021/06/07 17:05:45;;;;;;;0.10;0.10;;;28.40;60.10;;;;;;4935179;29;20358;-77
2021/06/07 17:08:15;;;;;;;0.10;0.10;;;28.50;59.00;;;;;;4935827;29;20198;-76
2021/06/07 17:10:44;;;;;;;0.10;0.10;;;28.80;59.80;;;;;;4936468;29;20237;-77
2021/06/07 17:13:14;;;;;;;0.10;0.10;;;29.20;64.50;;;;;;4941601;29;20245;-78
2021/06/07 17:15:42;;;;;;;0.10;0.10;;;29.20;76.40;;;;;;4937339;29;20261;-77
2021/06/07 17:18:13;;;;;;;0.10;0.10;;;29.00;60.60;;;;;;4937895;29;20210;-76
2021/06/07 17:20:42;;;;;;;0.10;0.10;;;28.40;62.10;;;;;;4939593;29;20197;-79
2021/06/07 17:23:10;;;;;;;0.10;0.10;;;28.90;64.40;;;;;;4945376;29;20226;-78
2021/06/07 17:25:39;;;;;;;0.10;0.10;;;28.50;62.80;;;;;;4943044;29;20202;-76